Rushville, New York
Current Conditions -  °F | °C
As of 3:53 AM on Sunday 26 Oct 2014 (Local Time) from KPEO Reporting Station
Clear Clear  
Wind Chill: 44°   Ceiling: Unl
Heat Index: 48°   Visibility: 10mi
Dew Point: 35°   Wind: 9mph
Humidity: 61%   Direction: 250°WSW
Pressure: 29.63"   Gusts: NA
Location:  42.76°N, 77.23°W
Report Text: KPEO 260753Z AUTO 25008KT 10SM CLR 09/02 A2963 RMK AO2 SLP032 T00890017
Loading
Personal Weather Stations






























Interactive Weather Map
Tropical Storm Tracking
New forecast layout! Learn more

10-Day Weather Forecast

Advertisements
Track Severe Weather on mobile